createdAt,value
2022-12-09T00:01:38.293Z,26.83
2022-12-09T00:04:06.422Z,27.53
2022-12-09T00:06:34.435Z,25.30
2022-12-09T00:09:02.547Z,27.17
2022-12-09T00:11:30.745Z,25.97
2022-12-09T00:13:59.751Z,26.03
2022-12-09T00:16:27.899Z,27.10
2022-12-09T00:18:57.871Z,26.10
2022-12-09T00:21:28.658Z,28.07
2022-12-09T00:23:58.129Z,25.67
2022-12-09T00:26:27.763Z,30.00
2022-12-09T00:28:56.842Z,27.30
2022-12-09T00:31:26.365Z,23.33
2022-12-09T00:33:56.452Z,28.13
2022-12-09T00:36:25.746Z,27.80
2022-12-09T00:38:54.693Z,34.93
2022-12-09T00:41:23.071Z,27.30
2022-12-09T00:43:51.609Z,23.63
2022-12-09T00:46:19.801Z,29.17
2022-12-09T00:48:47.787Z,29.37
2022-12-09T00:51:17.729Z,28.40
2022-12-09T00:53:47.449Z,26.87
2022-12-09T00:56:15.384Z,29.97
2022-12-09T00:58:43.320Z,28.07
2022-12-09T01:01:11.269Z,27.27
2022-12-09T01:03:40.119Z,26.97
2022-12-09T01:06:11.879Z,29.53
2022-12-09T01:08:40.234Z,27.60
2022-12-09T01:11:14.398Z,25.50
2022-12-09T01:13:42.373Z,26.33
2022-12-09T01:16:16.038Z,24.80
2022-12-09T01:18:44.141Z,28.30
2022-12-09T01:21:12.129Z,24.13
2022-12-09T01:23:41.798Z,29.70
2022-12-09T01:26:09.993Z,27.27
2022-12-09T01:28:40.918Z,27.93
2022-12-09T01:31:10.169Z,30.13
2022-12-09T01:33:38.341Z,24.80
2022-12-09T01:36:07.487Z,26.03
2022-12-09T01:38:35.794Z,29.13
2022-12-09T01:41:03.889Z,28.77
2022-12-09T01:43:31.807Z,25.37
2022-12-09T01:46:01.665Z,24.60
2022-12-09T01:48:32.244Z,27.43
2022-12-09T01:51:03.510Z,27.97
2022-12-09T01:53:33.871Z,27.13
2022-12-09T01:56:09.516Z,24.87
2022-12-09T01:58:37.565Z,25.73
2022-12-09T02:01:07.240Z,27.80
2022-12-09T02:03:35.568Z,24.33
2022-12-09T02:06:03.930Z,28.47
2022-12-09T02:08:32.443Z,29.37
2022-12-09T02:11:06.901Z,26.63
2022-12-09T02:13:45.554Z,25.17
2022-12-09T02:16:18.718Z,26.57
2022-12-09T02:18:52.428Z,23.47
2022-12-09T02:21:24.497Z,24.53
2022-12-09T02:23:57.148Z,27.80
2022-12-09T02:26:29.124Z,26.97
2022-12-09T02:29:09.730Z,24.87
2022-12-09T02:31:54.187Z,23.07
2022-12-09T02:34:24.598Z,25.97
2022-12-09T02:37:04.976Z,24.13
2022-12-09T02:39:39.979Z,24.70
2022-12-09T02:42:09.989Z,25.07
2022-12-09T02:44:40.093Z,26.00
2022-12-09T02:47:12.591Z,27.60
2022-12-09T02:49:42.822Z,22.63
2022-12-09T02:52:12.223Z,23.63
2022-12-09T02:54:40.941Z,25.50
2022-12-09T02:57:14.061Z,25.50
2022-12-09T02:59:42.640Z,24.37
2022-12-09T03:02:18.803Z,24.13
2022-12-09T03:04:50.958Z,22.10
2022-12-09T03:07:24.708Z,24.67
2022-12-09T03:10:00.521Z,22.67
2022-12-09T03:12:29.934Z,26.73
2022-12-09T03:14:59.197Z,29.43
2022-12-09T03:17:31.860Z,24.13
2022-12-09T03:20:05.959Z,29.33
2022-12-09T03:22:36.427Z,24.50
2022-12-09T03:25:07.004Z,26.77
2022-12-09T03:27:39.986Z,23.73
2022-12-09T03:30:10.513Z,26.87
2022-12-09T03:32:39.624Z,27.90
2022-12-09T03:35:12.637Z,28.73
2022-12-09T03:37:42.976Z,29.17
2022-12-09T03:40:14.516Z,24.70
2022-12-09T03:42:47.337Z,24.90
2022-12-09T03:45:17.007Z,24.53
2022-12-09T03:47:45.267Z,25.73
2022-12-09T03:50:16.542Z,24.90
2022-12-09T03:52:46.675Z,24.27
2022-12-09T03:55:20.543Z,24.87
2022-12-09T03:57:51.520Z,24.53
2022-12-09T04:00:20.377Z,27.50
2022-12-09T04:02:48.639Z,26.70
2022-12-09T04:05:18.337Z,29.27
2022-12-09T04:07:46.404Z,28.43
2022-12-09T04:10:14.961Z,23.57
2022-12-09T04:12:42.861Z,29.00
2022-12-09T04:15:11.148Z,26.87
2022-12-09T04:17:39.316Z,28.83
2022-12-09T04:20:09.225Z,26.63
2022-12-09T04:22:38.862Z,26.13
2022-12-09T04:25:07.724Z,25.53
2022-12-09T04:27:35.750Z,27.03
2022-12-09T04:30:04.001Z,28.60
2022-12-09T04:32:33.700Z,30.33
2022-12-09T04:35:02.221Z,26.70
2022-12-09T04:37:30.276Z,30.83
2022-12-09T04:39:59.642Z,27.80
2022-12-09T04:42:29.763Z,31.80
2022-12-09T04:44:57.891Z,26.37
2022-12-09T04:47:25.845Z,27.70
2022-12-09T04:49:54.304Z,26.97
2022-12-09T04:52:22.246Z,25.93
2022-12-09T04:54:50.947Z,24.03
2022-12-09T04:57:20.800Z,26.10
2022-12-09T04:59:49.432Z,28.80
2022-12-09T05:02:17.664Z,25.03
2022-12-09T05:04:46.996Z,26.60
2022-12-09T05:07:15.486Z,27.33
2022-12-09T05:09:43.836Z,28.60
2022-12-09T05:12:12.068Z,27.83
2022-12-09T05:14:41.694Z,24.83
2022-12-09T05:17:09.651Z,29.37
2022-12-09T05:19:38.351Z,27.13
2022-12-09T05:22:06.470Z,24.10
2022-12-09T05:24:34.459Z,29.13
2022-12-09T05:27:02.772Z,26.93
2022-12-09T05:29:31.000Z,26.53
2022-12-09T05:32:00.397Z,32.13
2022-12-09T05:34:28.697Z,30.77
2022-12-09T05:36:57.294Z,30.77
2022-12-09T05:39:25.700Z,30.30
2022-12-09T05:41:53.896Z,30.73
2022-12-09T05:44:22.027Z,34.87
2022-12-09T05:46:50.038Z,33.87
2022-12-09T05:49:19.526Z,34.50
2022-12-09T05:51:47.886Z,30.80
2022-12-09T05:54:15.907Z,33.73
2022-12-09T05:56:48.126Z,33.67
2022-12-09T05:59:16.973Z,28.90
2022-12-09T06:01:45.182Z,32.43
2022-12-09T06:04:13.247Z,30.80
2022-12-09T06:06:43.295Z,40.57
2022-12-09T06:09:12.170Z,29.03
2022-12-09T06:11:41.196Z,29.10
2022-12-09T06:14:11.329Z,32.17
2022-12-09T06:16:39.974Z,28.43
2022-12-09T06:19:08.400Z,32.20
2022-12-09T06:21:36.552Z,28.57
2022-12-09T06:24:08.068Z,29.87
2022-12-09T06:26:36.276Z,27.13
2022-12-09T06:29:04.866Z,27.17
2022-12-09T06:31:33.417Z,30.77
2022-12-09T06:34:02.313Z,26.43
2022-12-09T06:36:32.101Z,29.20
2022-12-09T06:39:07.639Z,27.27
2022-12-09T06:41:40.800Z,24.63
2022-12-09T06:44:09.127Z,34.13
2022-12-09T06:46:37.569Z,28.07
2022-12-09T06:49:05.819Z,24.97
2022-12-09T06:51:34.475Z,28.80
2022-12-09T06:54:02.444Z,26.93
2022-12-09T06:56:32.665Z,30.43
2022-12-09T06:59:02.197Z,32.10
2022-12-09T07:01:30.102Z,25.70
2022-12-09T07:03:58.521Z,27.77
2022-12-09T07:06:28.731Z,30.37
2022-12-09T07:08:58.468Z,27.77
2022-12-09T07:11:27.209Z,30.13
2022-12-09T07:13:55.571Z,31.23
2022-12-09T07:16:25.675Z,30.67
2022-12-09T07:18:54.019Z,31.40
2022-12-09T07:21:24.026Z,26.97
2022-12-09T07:23:52.548Z,27.83
2022-12-09T07:26:21.440Z,28.63
2022-12-09T07:28:50.576Z,29.27
2022-12-09T07:31:21.163Z,29.47
2022-12-09T07:33:51.596Z,30.60
2022-12-09T07:36:21.507Z,34.33
2022-12-09T07:38:50.498Z,33.47
2022-12-09T07:41:19.408Z,28.87
2022-12-09T07:43:48.197Z,34.17
2022-12-09T07:46:18.200Z,35.40
2022-12-09T07:48:47.157Z,29.47
2022-12-09T07:51:17.137Z,31.57
2022-12-09T07:53:45.410Z,30.90
2022-12-09T07:56:14.811Z,33.27
2022-12-09T07:58:43.926Z,34.57
2022-12-09T08:01:14.153Z,29.07
2022-12-09T08:03:42.772Z,28.93
2022-12-09T08:06:14.004Z,28.37
2022-12-09T08:08:44.266Z,26.37
2022-12-09T08:11:14.623Z,28.53
2022-12-09T08:13:43.159Z,25.57
2022-12-09T08:16:13.420Z,26.47
2022-12-09T08:18:42.961Z,26.83
2022-12-09T08:21:13.254Z,27.47
2022-12-09T08:23:43.442Z,29.23
2022-12-09T08:26:12.714Z,25.70
2022-12-09T08:28:41.193Z,28.83
2022-12-09T08:31:10.347Z,27.63
2022-12-09T08:33:38.989Z,29.40
2022-12-09T08:36:13.183Z,27.93
2022-12-09T08:38:41.401Z,29.93
2022-12-09T08:41:12.633Z,27.73
2022-12-09T08:43:41.359Z,29.90
2022-12-09T08:46:09.560Z,28.73
2022-12-09T08:48:38.085Z,33.47
2022-12-09T08:51:07.876Z,32.80
2022-12-09T08:53:35.926Z,31.03
2022-12-09T08:56:11.141Z,32.03
2022-12-09T08:58:39.513Z,28.90
2022-12-09T09:01:08.053Z,31.47
2022-12-09T09:03:36.462Z,27.50
2022-12-09T09:06:09.539Z,26.10
2022-12-09T09:08:39.238Z,31.20
2022-12-09T09:11:12.367Z,25.43
2022-12-09T09:13:41.635Z,28.67
2022-12-09T09:16:11.786Z,28.70
2022-12-09T09:18:41.011Z,29.70
2022-12-09T09:21:10.561Z,26.80
2022-12-09T09:23:38.871Z,26.53
2022-12-09T09:26:13.137Z,30.47
2022-12-09T09:28:41.871Z,31.47
2022-12-09T09:31:12.503Z,23.70
2022-12-09T09:33:40.722Z,27.63
2022-12-09T09:36:11.676Z,26.47
2022-12-09T09:38:40.244Z,25.47
2022-12-09T09:41:16.627Z,22.73
2022-12-09T09:43:46.527Z,23.37
2022-12-09T09:46:18.340Z,29.00
2022-12-09T09:48:47.795Z,26.90
2022-12-09T09:51:18.472Z,24.10
2022-12-09T09:53:46.772Z,23.00
2022-12-09T09:56:21.881Z,26.07
2022-12-09T09:58:57.437Z,27.80
2022-12-09T10:01:28.822Z,26.00
2022-12-09T10:04:00.603Z,25.63
2022-12-09T10:06:39.248Z,25.97
2022-12-09T10:09:14.501Z,25.00
2022-12-09T10:11:54.924Z,30.43
2022-12-09T10:14:34.060Z,27.83
2022-12-09T10:17:08.458Z,21.87
2022-12-09T10:19:37.803Z,26.00
2022-12-09T10:22:13.524Z,23.53
2022-12-09T10:24:47.718Z,23.03
2022-12-09T10:27:21.953Z,25.87
2022-12-09T10:29:57.703Z,24.90
2022-12-09T10:32:28.837Z,23.57
2022-12-09T10:34:57.149Z,22.47
2022-12-09T10:37:29.906Z,23.07
2022-12-09T10:40:16.417Z,22.47
2022-12-09T10:43:05.687Z,23.07
2022-12-09T10:46:15.159Z,20.57
2022-12-09T10:48:33.033Z,18.80
2022-12-09T10:51:04.273Z,23.43
2022-12-09T10:53:33.869Z,16.83
2022-12-09T10:56:02.781Z,17.00
2022-12-09T10:58:32.580Z,21.27
2022-12-09T11:01:06.185Z,17.07
2022-12-09T11:03:36.636Z,15.63
2022-12-09T11:06:16.491Z,17.13
2022-12-09T11:08:51.726Z,14.23
2022-12-09T11:11:20.682Z,12.43
2022-12-09T11:13:48.878Z,12.15
2022-12-09T11:16:18.190Z,11.50
2022-12-09T11:18:48.363Z,12.27
2022-12-09T11:21:35.012Z,13.40
2022-12-09T11:24:04.861Z,14.98
2022-12-09T11:26:36.650Z,16.27
2022-12-09T11:29:07.544Z,21.57
2022-12-09T11:31:41.173Z,20.23
2022-12-09T11:34:17.746Z,21.70
2022-12-09T11:36:49.451Z,22.50
2022-12-09T11:39:29.404Z,19.77
2022-12-09T11:42:19.456Z,24.43
2022-12-09T11:44:56.551Z,23.67
2022-12-09T11:47:50.260Z,23.40
2022-12-09T11:50:23.888Z,22.83
2022-12-09T11:53:08.099Z,24.70
2022-12-09T11:55:37.531Z,22.87
2022-12-09T11:58:07.671Z,24.13
2022-12-09T12:00:39.278Z,26.50
2022-12-09T12:03:15.376Z,22.20
2022-12-09T12:05:45.150Z,22.50
2022-12-09T12:08:19.572Z,21.87
2022-12-09T12:10:52.600Z,23.27
2022-12-09T12:13:23.611Z,23.83
2022-12-09T12:15:55.080Z,24.17
2022-12-09T12:18:24.503Z,23.83
2022-12-09T12:21:22.945Z,23.87
2022-12-09T12:24:15.676Z,24.80
2022-12-09T12:26:50.828Z,20.83
2022-12-09T12:29:26.424Z,23.00
2022-12-09T12:32:13.981Z,23.80
2022-12-09T12:34:49.990Z,25.67
2022-12-09T12:37:29.103Z,26.57
2022-12-09T12:40:04.562Z,23.60
2022-12-09T12:42:40.542Z,20.70
2022-12-09T12:45:32.922Z,21.60
2022-12-09T12:48:03.642Z,24.77
2022-12-09T12:50:44.763Z,24.30
2022-12-09T12:53:23.384Z,27.40
2022-12-09T12:55:58.122Z,25.83
2022-12-09T12:58:39.991Z,24.07
2022-12-09T13:01:15.593Z,23.13
2022-12-09T13:03:51.972Z,23.87
2022-12-09T13:06:36.830Z,26.93
2022-12-09T13:09:10.474Z,30.67
2022-12-09T13:11:46.179Z,26.80
2022-12-09T13:14:17.129Z,29.10
2022-12-09T13:16:45.976Z,24.33
2022-12-09T13:19:17.327Z,25.73
2022-12-09T13:21:47.058Z,26.37
2022-12-09T13:24:21.769Z,28.07
2022-12-09T13:26:53.385Z,25.70
2022-12-09T13:29:38.482Z,23.90
2022-12-09T13:32:20.290Z,30.53
2022-12-09T13:34:51.511Z,25.40
2022-12-09T13:38:00.748Z,24.43
2022-12-09T13:40:32.449Z,25.87
2022-12-09T13:43:13.511Z,27.10
2022-12-09T13:45:50.685Z,29.77
2022-12-09T13:48:44.396Z,29.50
2022-12-09T13:51:12.473Z,30.93
2022-12-09T13:53:46.456Z,30.80
2022-12-09T13:56:22.709Z,29.03
2022-12-09T13:59:43.946Z,29.67
2022-12-09T14:02:23.278Z,29.23
2022-12-09T14:05:00.034Z,34.33
2022-12-09T14:07:33.712Z,30.37
2022-12-09T14:10:03.404Z,32.63
2022-12-09T14:13:03.684Z,33.40
2022-12-09T14:15:37.608Z,29.67
2022-12-09T14:18:16.316Z,31.80
2022-12-09T14:20:44.163Z,34.73
2022-12-09T14:23:19.308Z,32.17
2022-12-09T14:26:09.097Z,33.07
2022-12-09T14:28:42.077Z,34.50
2022-12-09T14:31:10.284Z,33.70
2022-12-09T14:33:39.840Z,35.53
2022-12-09T14:36:20.590Z,39.10
2022-12-09T14:39:22.565Z,42.33
2022-12-09T14:41:47.438Z,41.00
2022-12-09T14:44:22.482Z,42.57
2022-12-09T14:46:54.380Z,40.43
2022-12-09T14:49:24.922Z,40.53
2022-12-09T14:51:55.434Z,38.90
2022-12-09T14:54:25.086Z,43.93
2022-12-09T14:56:57.600Z,40.80
2022-12-09T14:59:27.008Z,43.63
2022-12-09T15:01:57.188Z,37.50
2022-12-09T15:04:29.965Z,37.70
2022-12-09T15:07:16.426Z,35.87
2022-12-09T15:09:55.815Z,36.93
2022-12-09T15:12:27.844Z,39.93
2022-12-09T15:14:58.668Z,38.20
2022-12-09T15:17:29.083Z,40.47
2022-12-09T15:20:00.625Z,43.50
2022-12-09T15:22:40.036Z,42.30
2022-12-09T15:25:17.851Z,40.80
2022-12-09T15:27:56.354Z,40.97
2022-12-09T15:30:26.337Z,41.33
2022-12-09T15:32:54.285Z,39.27
2022-12-09T15:35:24.962Z,37.77
2022-12-09T15:37:54.020Z,44.03
2022-12-09T15:40:23.032Z,42.73
2022-12-09T15:42:53.959Z,40.23
2022-12-09T15:45:23.785Z,38.67
2022-12-09T15:47:54.219Z,39.53
2022-12-09T15:50:24.229Z,43.43
2022-12-09T15:52:53.380Z,42.30
2022-12-09T15:55:23.623Z,42.30
2022-12-09T15:57:54.555Z,43.93
2022-12-09T16:00:22.648Z,42.43
2022-12-09T16:02:51.119Z,39.03
2022-12-09T16:05:24.024Z,50.53
2022-12-09T16:07:57.278Z,45.07
2022-12-09T16:10:27.017Z,43.77
2022-12-09T16:13:08.922Z,40.23
2022-12-09T16:15:47.033Z,36.27
2022-12-09T16:18:18.808Z,39.17
2022-12-09T16:20:57.767Z,37.87
2022-12-09T16:23:26.874Z,38.67
2022-12-09T16:26:04.795Z,36.47
2022-12-09T16:28:36.116Z,35.17
2022-12-09T16:31:18.385Z,37.73
2022-12-09T16:33:48.876Z,41.97
2022-12-09T16:36:19.721Z,38.47
2022-12-09T16:39:05.397Z,38.57
2022-12-09T16:42:01.612Z,38.73
2022-12-09T16:44:34.925Z,33.80
2022-12-09T16:47:14.774Z,34.97
2022-12-09T16:49:44.178Z,35.27
2022-12-09T16:52:14.290Z,33.13
2022-12-09T16:54:43.647Z,34.53
2022-12-09T16:57:15.643Z,33.23
2022-12-09T16:59:44.018Z,46.73
2022-12-09T17:02:20.093Z,39.23
2022-12-09T17:04:49.012Z,32.77
2022-12-09T17:07:16.846Z,37.10
2022-12-09T17:09:44.732Z,34.90
2022-12-09T17:12:13.954Z,37.57
2022-12-09T17:14:41.890Z,38.23
2022-12-09T17:17:09.955Z,35.90
2022-12-09T17:19:38.502Z,35.03
2022-12-09T17:22:06.410Z,32.37
2022-12-09T17:24:34.300Z,31.03
2022-12-09T17:27:02.196Z,30.83
2022-12-09T17:29:31.480Z,31.43
2022-12-09T17:31:59.361Z,30.07
2022-12-09T17:34:27.581Z,34.60
2022-12-09T17:36:56.055Z,30.87
2022-12-09T17:39:24.727Z,34.63
2022-12-09T17:41:52.671Z,32.60
2022-12-09T17:44:21.319Z,29.63
2022-12-09T17:46:51.032Z,31.33
2022-12-09T17:49:19.062Z,34.20
2022-12-09T17:51:47.226Z,33.23
2022-12-09T17:54:15.103Z,27.47
2022-12-09T17:56:43.005Z,29.93
2022-12-09T17:59:16.778Z,28.53
2022-12-09T18:01:46.230Z,29.17
2022-12-09T18:04:15.965Z,31.60
2022-12-09T18:06:44.861Z,32.83
2022-12-09T18:09:14.516Z,29.63
2022-12-09T18:11:42.795Z,27.17
2022-12-09T18:14:10.901Z,29.10
2022-12-09T18:16:38.889Z,28.17
2022-12-09T18:19:09.853Z,29.17
2022-12-09T18:21:39.347Z,26.90
2022-12-09T18:24:07.695Z,29.10
2022-12-09T18:26:41.374Z,30.23
2022-12-09T18:29:09.975Z,29.20
2022-12-09T18:31:37.756Z,31.30
2022-12-09T18:34:05.577Z,30.97
2022-12-09T18:36:33.366Z,30.63
2022-12-09T18:39:02.510Z,27.77
2022-12-09T18:41:31.758Z,28.57
2022-12-09T18:44:06.120Z,27.70
2022-12-09T18:46:36.220Z,28.57
2022-12-09T18:49:07.203Z,28.00
2022-12-09T18:51:35.574Z,29.33
2022-12-09T18:54:05.496Z,27.67
2022-12-09T18:56:34.144Z,30.93
2022-12-09T18:59:07.051Z,29.30
2022-12-09T19:01:39.016Z,28.87
2022-12-09T19:04:08.583Z,29.63
2022-12-09T19:06:37.714Z,28.43
2022-12-09T19:09:08.921Z,32.80
2022-12-09T19:11:38.086Z,33.63
2022-12-09T19:14:07.008Z,31.43
2022-12-09T19:16:35.075Z,32.77
2022-12-09T19:19:09.215Z,32.83
2022-12-09T19:21:38.096Z,34.17
2022-12-09T19:24:08.497Z,34.27
2022-12-09T19:26:37.417Z,34.27
2022-12-09T19:29:06.617Z,32.20
2022-12-09T19:31:37.323Z,32.10
2022-12-09T19:34:06.941Z,29.97
2022-12-09T19:36:35.003Z,34.57
2022-12-09T19:39:03.483Z,32.87
2022-12-09T19:41:33.224Z,33.67
2022-12-09T19:44:02.879Z,35.20
2022-12-09T19:46:30.776Z,34.47
2022-12-09T19:48:59.313Z,32.87
2022-12-09T19:51:27.977Z,33.97
2022-12-09T19:53:56.836Z,37.90
2022-12-09T19:56:24.936Z,36.20
2022-12-09T19:58:54.465Z,39.47
2022-12-09T20:01:23.825Z,37.43
2022-12-09T20:03:52.945Z,43.60
2022-12-09T20:06:21.824Z,36.47
2022-12-09T20:08:50.090Z,38.00
2022-12-09T20:11:20.034Z,39.97
2022-12-09T20:13:48.233Z,35.93
2022-12-09T20:16:19.030Z,40.00
2022-12-09T20:18:48.480Z,40.67
2022-12-09T20:21:17.715Z,37.67
2022-12-09T20:23:46.362Z,40.20
2022-12-09T20:26:15.822Z,41.83
2022-12-09T20:28:45.064Z,42.40
2022-12-09T20:31:14.427Z,38.43
2022-12-09T20:33:43.697Z,42.77
2022-12-09T20:36:13.356Z,40.77
2022-12-09T20:38:41.500Z,39.77
2022-12-09T20:41:11.143Z,37.67
2022-12-09T20:43:40.251Z,44.67
2022-12-09T20:46:09.128Z,41.33
2022-12-09T20:48:37.969Z,43.23
2022-12-09T20:51:08.560Z,45.77
2022-12-09T20:53:37.310Z,42.27
2022-12-09T20:56:05.525Z,50.43
2022-12-09T20:58:33.323Z,43.93
2022-12-09T21:01:05.988Z,47.27
2022-12-09T21:03:33.873Z,45.83
2022-12-09T21:06:01.657Z,46.67
2022-12-09T21:08:31.927Z,44.97
2022-12-09T21:11:04.338Z,47.90
2022-12-09T21:13:32.122Z,48.37
2022-12-09T21:16:07.066Z,44.23
2022-12-09T21:18:35.541Z,48.63
2022-12-09T21:21:03.414Z,46.97
2022-12-09T21:23:34.435Z,48.37
2022-12-09T21:26:06.508Z,41.47
2022-12-09T21:28:34.362Z,45.57
2022-12-09T21:31:08.223Z,43.20
2022-12-09T21:33:36.942Z,41.87
2022-12-09T21:36:06.738Z,43.93
2022-12-09T21:38:37.421Z,42.30
2022-12-09T21:41:06.208Z,49.27
2022-12-09T21:43:34.409Z,47.53
2022-12-09T21:46:03.373Z,46.90
2022-12-09T21:48:32.028Z,46.53
2022-12-09T21:51:01.020Z,47.93
2022-12-09T21:53:29.311Z,45.17
2022-12-09T21:56:03.525Z,48.30
2022-12-09T21:58:32.325Z,41.63
2022-12-09T22:01:00.891Z,46.10
2022-12-09T22:03:28.776Z,42.53
2022-12-09T22:05:58.433Z,45.43
2022-12-09T22:08:27.067Z,45.77
2022-12-09T22:10:54.853Z,46.57
2022-12-09T22:13:24.033Z,48.73
2022-12-09T22:15:51.869Z,52.63
2022-12-09T22:18:19.920Z,44.83
2022-12-09T22:21:23.689Z,46.93
2022-12-09T22:23:35.841Z,48.93
2022-12-09T22:26:06.473Z,54.50
2022-12-09T22:28:36.284Z,46.17
2022-12-09T22:31:10.137Z,47.87
2022-12-09T22:33:37.962Z,49.40
2022-12-09T22:36:06.478Z,49.27
2022-12-09T22:38:34.767Z,53.00
2022-12-09T22:41:04.663Z,51.73
2022-12-09T22:43:37.904Z,54.60
2022-12-09T22:46:09.099Z,55.80
2022-12-09T22:48:37.017Z,55.20
2022-12-09T22:51:05.990Z,61.40
2022-12-09T22:53:34.562Z,55.83
2022-12-09T22:56:02.358Z,61.47
2022-12-09T22:58:30.196Z,56.43
2022-12-09T23:00:58.018Z,57.80
2022-12-09T23:03:27.600Z,54.90
2022-12-09T23:05:56.527Z,57.53
2022-12-09T23:08:24.459Z,54.77
2022-12-09T23:10:52.340Z,56.40
2022-12-09T23:13:20.119Z,52.13
2022-12-09T23:15:47.898Z,54.13
2022-12-09T23:18:15.715Z,55.23
2022-12-09T23:20:44.937Z,51.97
2022-12-09T23:23:12.770Z,49.80
2022-12-09T23:25:41.606Z,51.00
2022-12-09T23:28:11.455Z,55.97
2022-12-09T23:30:39.361Z,54.07
2022-12-09T23:33:07.116Z,51.87
2022-12-09T23:35:38.515Z,48.27
2022-12-09T23:38:07.603Z,51.23
2022-12-09T23:40:35.385Z,50.97
2022-12-09T23:43:03.425Z,47.87
2022-12-09T23:45:31.338Z,45.13
2022-12-09T23:47:59.281Z,51.67
2022-12-09T23:50:27.049Z,52.17
2022-12-09T23:52:54.791Z,51.63
2022-12-09T23:55:23.964Z,49.57
2022-12-09T23:57:51.729Z,47.67
